createdAt,value
2019-05-15T00:04:12.927Z,63.90
2019-05-15T00:09:18.871Z,63.68
2019-05-15T00:14:21.547Z,63.79
2019-05-15T00:19:24.987Z,63.51
2019-05-15T00:24:28.937Z,63.99
2019-05-15T00:29:32.511Z,63.95
2019-05-15T00:34:37.861Z,63.47
2019-05-15T00:39:41.102Z,63.82
2019-05-15T00:44:44.544Z,63.54
2019-05-15T00:49:48.808Z,64.22
2019-05-15T00:54:52.440Z,64.87
2019-05-15T00:59:55.825Z,64.93
2019-05-15T01:04:59.254Z,65.50
2019-05-15T01:10:03.037Z,66.32
2019-05-15T01:15:09.516Z,66.78
2019-05-15T01:20:13.336Z,67.05
2019-05-15T01:25:18.645Z,67.39
2019-05-15T01:30:22.134Z,67.27
2019-05-15T01:35:25.567Z,67.56
2019-05-15T01:40:29.061Z,67.61
2019-05-15T01:45:32.477Z,67.61
2019-05-15T01:50:38.397Z,68.45
2019-05-15T01:55:41.063Z,68.77
2019-05-15T02:00:44.480Z,69.37
2019-05-15T02:05:48.580Z,69.39
2019-05-15T02:10:52.012Z,69.13
2019-05-15T02:15:55.412Z,70.25
2019-05-15T02:20:59.788Z,69.21
2019-05-15T02:26:03.319Z,70.25
2019-05-15T02:31:09.969Z,70.98
2019-05-15T02:36:11.915Z,70.64
2019-05-15T02:41:15.322Z,70.81
2019-05-15T02:46:19.615Z,70.22
2019-05-15T02:51:23.241Z,70.25
2019-05-15T02:56:29.356Z,70.61
2019-05-15T03:01:31.902Z,71.19
2019-05-15T03:06:38.634Z,71.77
2019-05-15T03:11:41.271Z,71.02
2019-05-15T03:16:44.730Z,70.81
2019-05-15T03:21:49.630Z,71.10
2019-05-15T03:26:53.325Z,71.28
2019-05-15T03:32:13.529Z,71.21
2019-05-15T03:37:04.188Z,70.74
2019-05-15T03:42:09.583Z,70.98
2019-05-15T03:47:13.291Z,71.81
2019-05-15T03:52:19.047Z,72.12
2019-05-15T03:57:23.183Z,71.97
2019-05-15T04:02:28.778Z,70.57
2019-05-15T04:07:32.494Z,71.28
2019-05-15T04:12:35.898Z,71.80
2019-05-15T04:17:40.348Z,71.89
2019-05-15T04:22:44.013Z,71.79
2019-05-15T04:27:49.604Z,72.28
2019-05-15T04:32:53.027Z,72.64
2019-05-15T04:37:59.420Z,71.84
2019-05-15T04:43:01.702Z,72.36
2019-05-15T04:48:05.363Z,74.10
2019-05-15T04:53:10.538Z,72.65
2019-05-15T04:58:14.060Z,73.37
2019-05-15T05:03:19.852Z,73.77
2019-05-15T05:08:22.754Z,73.37
2019-05-15T05:13:28.642Z,73.64
2019-05-15T05:18:31.394Z,73.48
2019-05-15T05:23:34.811Z,71.98
2019-05-15T05:28:38.225Z,71.97
2019-05-15T05:33:41.672Z,70.58
2019-05-15T05:38:45.090Z,69.15
2019-05-15T05:43:48.802Z,68.92
2019-05-15T05:48:52.331Z,68.29
2019-05-15T05:53:55.837Z,68.14
2019-05-15T05:58:59.243Z,64.89
2019-05-15T06:04:02.655Z,63.77
2019-05-15T06:09:09.039Z,63.91
2019-05-15T06:14:12.023Z,58.57
2019-05-15T06:19:15.450Z,60.34
2019-05-15T06:24:18.871Z,60.56
2019-05-15T06:29:22.286Z,58.99
2019-05-15T06:34:25.718Z,55.33
2019-05-15T06:39:29.216Z,55.62
2019-05-15T06:44:32.773Z,54.95
2019-05-15T06:49:37.823Z,53.58
2019-05-15T06:54:41.410Z,53.40
2019-05-15T06:59:44.822Z,52.86
2019-05-15T07:04:48.888Z,52.44
2019-05-15T07:09:52.722Z,50.67
2019-05-15T07:14:58.217Z,48.25
2019-05-15T07:20:01.371Z,47.71
2019-05-15T07:25:08.886Z,48.90
2019-05-15T07:30:13.152Z,49.75
2019-05-15T07:35:19.157Z,47.96
2019-05-15T07:40:23.348Z,45.78
2019-05-15T07:45:28.279Z,44.00
2019-05-15T07:50:31.860Z,44.89
2019-05-15T07:55:35.299Z,44.09
2019-05-15T08:00:39.635Z,42.06
2019-05-15T08:05:58.050Z,41.48
2019-05-15T08:10:49.225Z,44.03
2019-05-15T08:15:52.681Z,41.35
2019-05-15T08:20:58.632Z,42.71
2019-05-15T08:26:01.261Z,40.38
2019-05-15T08:31:06.707Z,41.66
2019-05-15T08:36:09.923Z,40.43
2019-05-15T08:41:15.566Z,40.42
2019-05-15T08:46:18.812Z,41.18
2019-05-15T08:51:22.334Z,38.60
2019-05-15T08:56:28.668Z,39.04
2019-05-15T09:01:30.910Z,37.53
2019-05-15T09:06:34.328Z,37.05
2019-05-15T09:11:39.180Z,40.15
2019-05-15T09:16:42.896Z,36.33
2019-05-15T09:21:48.811Z,35.71
2019-05-15T09:26:51.602Z,36.71
2019-05-15T09:31:55.029Z,36.26
2019-05-15T09:36:59.938Z,36.81
2019-05-15T09:42:03.603Z,33.12
2019-05-15T09:47:09.151Z,36.42
2019-05-15T09:52:12.147Z,34.36
2019-05-15T09:57:15.579Z,36.53
2019-05-15T10:02:19.241Z,33.72
2019-05-15T10:07:22.709Z,36.80
2019-05-15T10:12:31.347Z,32.89
2019-05-15T10:17:31.299Z,33.93
2019-05-15T10:22:34.724Z,32.30
2019-05-15T10:27:39.824Z,33.68
2019-05-15T10:32:43.489Z,33.68
2019-05-15T10:37:48.825Z,33.64
2019-05-15T10:42:52.103Z,33.03
2019-05-15T10:47:58.404Z,32.57
2019-05-15T10:53:00.686Z,33.16
2019-05-15T10:58:04.230Z,32.40
2019-05-15T11:03:08.902Z,33.33
2019-05-15T11:08:12.459Z,33.34
2019-05-15T11:13:18.510Z,33.14
2019-05-15T11:18:21.083Z,31.54
2019-05-15T11:23:24.523Z,28.16
2019-05-15T11:28:31.726Z,29.59
2019-05-15T11:33:33.089Z,30.35
2019-05-15T11:38:38.149Z,30.33
2019-05-15T11:43:41.753Z,29.86
2019-05-15T11:48:45.169Z,31.10
2019-05-15T11:53:49.191Z,31.05
2019-05-15T11:58:52.791Z,29.18
2019-05-15T12:03:58.575Z,31.23
2019-05-15T12:09:01.412Z,31.38
2019-05-15T12:14:04.916Z,31.95
2019-05-15T12:19:09.516Z,31.54
2019-05-15T12:24:13.768Z,31.92
2019-05-15T12:29:17.291Z,33.44
2019-05-15T12:34:20.720Z,31.43
2019-05-15T12:39:29.458Z,30.58
2019-05-15T12:59:45.069Z,28.43
2019-05-15T13:04:48.563Z,29.85
2019-05-15T13:09:52.076Z,28.10
2019-05-15T13:14:55.491Z,30.04
2019-05-15T13:19:58.907Z,29.58
2019-05-15T13:25:02.529Z,29.79
2019-05-15T13:30:11.996Z,31.54
2019-05-15T13:35:15.625Z,32.48
2019-05-15T13:40:33.824Z,32.94
2019-05-15T13:45:24.734Z,32.94
2019-05-15T13:50:28.620Z,32.19
2019-05-15T13:55:36.803Z,32.62
2019-05-15T14:00:39.133Z,33.03
2019-05-15T14:05:45.090Z,32.25
2019-05-15T14:10:48.755Z,31.45
2019-05-15T14:15:52.389Z,29.93
2019-05-15T14:20:58.206Z,31.97
2019-05-15T14:26:15.079Z,32.55
2019-05-15T14:31:09.503Z,33.47
2019-05-15T14:36:11.273Z,33.50
2019-05-15T14:41:14.703Z,33.15
2019-05-15T14:46:18.650Z,33.18
2019-05-15T14:51:22.135Z,31.94
2019-05-15T14:56:25.584Z,31.49
2019-05-15T15:01:29.041Z,31.75
2019-05-15T15:06:32.474Z,29.78
2019-05-15T15:11:38.368Z,30.54
2019-05-15T15:16:41.121Z,32.31
2019-05-15T15:21:44.539Z,32.10
2019-05-15T15:26:49.323Z,32.65
2019-05-15T15:31:52.877Z,32.01
2019-05-15T15:36:57.937Z,30.83
2019-05-15T15:42:01.503Z,30.94
2019-05-15T15:47:05.201Z,31.71
2019-05-15T15:52:08.942Z,33.18
2019-05-15T15:57:12.396Z,34.09
2019-05-15T16:02:15.785Z,35.26
2019-05-15T16:07:19.214Z,34.86
2019-05-15T16:12:22.638Z,35.18
2019-05-15T16:17:28.477Z,35.58
2019-05-15T16:22:31.213Z,36.07
2019-05-15T16:27:34.628Z,33.22
2019-05-15T16:32:41.405Z,34.00
2019-05-15T16:37:43.353Z,35.02
2019-05-15T16:42:48.861Z,35.70
2019-05-15T16:47:52.212Z,35.52
2019-05-15T16:52:55.644Z,33.94
2019-05-15T16:57:59.179Z,35.26
2019-05-15T17:03:10.093Z,35.50
2019-05-15T17:08:09.154Z,36.27
2019-05-15T17:13:12.725Z,36.97
2019-05-15T17:18:18.114Z,37.75
2019-05-15T17:23:21.277Z,38.63
2019-05-15T17:28:24.707Z,39.67
2019-05-15T17:33:28.875Z,40.12
2019-05-15T17:38:33.436Z,39.10
2019-05-15T17:43:37.942Z,39.68
2019-05-15T17:48:41.431Z,39.53
2019-05-15T17:53:44.867Z,39.21
2019-05-15T17:58:48.836Z,40.09
2019-05-15T18:03:52.379Z,40.31
2019-05-15T18:08:55.980Z,41.48
2019-05-15T18:14:00.186Z,42.02
2019-05-15T18:19:03.608Z,42.48
2019-05-15T18:24:09.313Z,43.05
2019-05-15T18:29:12.933Z,43.25
2019-05-15T18:34:18.616Z,43.72
2019-05-15T18:39:21.776Z,44.40
2019-05-15T18:44:25.197Z,45.71
2019-05-15T18:49:28.646Z,46.33
2019-05-15T18:54:32.075Z,47.13
2019-05-15T18:59:35.496Z,48.96
2019-05-15T19:04:38.919Z,48.56
2019-05-15T19:09:42.376Z,48.87
2019-05-15T19:14:46.006Z,49.01
2019-05-15T19:19:49.418Z,48.66
2019-05-15T19:24:52.838Z,48.75
2019-05-15T19:29:56.285Z,51.38
2019-05-15T19:34:59.707Z,51.14
2019-05-15T19:40:03.914Z,51.57
2019-05-15T19:45:09.251Z,52.91
2019-05-15T19:50:13.927Z,52.50
2019-05-15T19:55:19.524Z,54.07
2019-05-15T20:00:23.713Z,53.28
2019-05-15T20:05:29.004Z,53.06
2019-05-15T20:10:32.215Z,53.31
2019-05-15T20:15:37.814Z,53.87
2019-05-15T20:20:40.780Z,54.62
2019-05-15T20:25:44.288Z,56.00
2019-05-15T20:30:48.185Z,55.90
2019-05-15T20:35:51.784Z,54.79
2019-05-15T20:40:55.219Z,55.39
2019-05-15T20:45:58.642Z,55.73
2019-05-15T20:51:02.079Z,55.78
2019-05-15T20:56:05.503Z,57.10
2019-05-15T21:01:09.301Z,57.08
2019-05-15T21:06:12.751Z,57.17
2019-05-15T21:11:18.049Z,56.67
2019-05-15T21:16:22.990Z,56.42
2019-05-15T21:21:28.255Z,56.13
2019-05-15T21:26:31.529Z,53.82
2019-05-15T21:31:35.000Z,53.22
2019-05-15T21:36:39.456Z,52.53
2019-05-15T21:41:43.026Z,51.00
2019-05-15T21:46:48.124Z,52.27
2019-05-15T21:51:51.647Z,50.41
2019-05-15T21:57:06.794Z,51.92
2019-05-15T22:02:00.564Z,51.60
2019-05-15T22:07:04.061Z,50.36
2019-05-15T22:12:07.684Z,49.92
2019-05-15T22:17:11.107Z,50.41
2019-05-15T22:22:14.591Z,50.99
2019-05-15T22:27:21.044Z,50.19
2019-05-15T22:32:23.190Z,50.74
2019-05-15T22:37:26.598Z,51.65
2019-05-15T22:42:31.814Z,51.68
2019-05-15T22:47:35.416Z,52.40
2019-05-15T22:52:39.164Z,52.27
2019-05-15T22:57:42.550Z,52.83
2019-05-15T23:02:48.899Z,53.02
2019-05-15T23:07:51.843Z,51.99
2019-05-15T23:12:55.267Z,53.28
2019-05-15T23:17:58.698Z,52.88
2019-05-15T23:23:02.137Z,52.95
2019-05-15T23:28:05.657Z,52.25
2019-05-15T23:33:09.075Z,52.34
2019-05-15T23:38:12.497Z,52.11
2019-05-15T23:43:15.944Z,51.98
2019-05-15T23:48:19.374Z,50.98
2019-05-15T23:53:22.823Z,52.03
2019-05-15T23:58:28.886Z,51.80
